Time;durP1;ratioP1;P1;durP2;ratioP2;P2;SDS_P1;SDS_P2;PMS_P1;PMS_P2;Temp;Humidity;BMP_temperature;BMP_pressure;BME280_temperature;BME280_humidity;BME280_pressure;Samples;Min_cycle;Max_cycle;Signal;HPM_P1;HPM_P2
2022/11/29 00:00:05;;;;;;;32.60;17.77;;;;;;;-139.34;74.22;78508.31;1038795;28;20108;-75
2022/11/29 00:00:57;;;;;;;40.45;17.92;;;;;;;-139.34;74.32;78504.31;1037266;28;20045;-76
2022/11/29 00:01:48;;;;;;;30.05;18.48;;;;;;;-139.34;74.04;78502.31;1034153;28;20551;-75
2022/11/29 00:02:40;;;;;;;31.83;18.10;;;;;;;-139.34;74.15;78504.31;1026112;28;20054;-75
2022/11/29 00:03:33;;;;;;;33.47;17.58;;;;;;;-139.34;74.10;78504.31;1029962;28;20544;-75
2022/11/29 00:04:24;;;;;;;27.95;17.48;;;;;;;-139.34;74.25;78502.31;1038537;28;20045;-75
2022/11/29 00:05:16;;;;;;;34.38;18.70;;;;;;;-139.34;74.36;78506.31;1033544;28;20194;-76
2022/11/29 00:06:19;;;;;;;33.63;17.92;;;;;;;-139.34;74.32;78502.31;1034459;28;20064;-75
2022/11/29 00:07:11;;;;;;;34.05;18.35;;;;;;;-139.34;74.30;78508.31;1038782;28;20053;-76
2022/11/29 00:08:02;;;;;;;35.53;17.80;;;;;;;-139.34;74.30;78508.31;1033593;28;20197;-76
2022/11/29 00:08:55;;;;;;;29.92;17.65;;;;;;;-139.34;74.25;78504.31;1033449;28;20088;-75
2022/11/29 00:09:47;;;;;;;35.75;17.73;;;;;;;-139.34;74.08;78502.31;1027903;28;20061;-76
2022/11/29 00:10:38;;;;;;;35.53;17.67;;;;;;;-139.34;74.13;78506.31;1027319;28;20078;-76
2022/11/29 00:12:46;;;;;;;30.48;16.80;;;;;;;-139.34;74.00;78512.31;1036789;28;20127;-76
2022/11/29 00:13:38;;;;;;;28.83;16.17;;;;;;;-139.34;74.32;78506.31;1031394;28;20058;-76
2022/11/29 00:14:29;;;;;;;31.48;17.25;;;;;;;-139.34;74.12;78508.31;1035061;28;20442;-76
2022/11/29 00:15:21;;;;;;;35.20;16.45;;;;;;;-139.34;74.31;78508.31;1038781;28;20492;-76
2022/11/29 00:16:14;;;;;;;33.42;17.38;;;;;;;-139.34;74.23;78504.31;1034805;28;20050;-76
2022/11/29 00:17:06;;;;;;;34.92;16.90;;;;;;;-139.34;74.08;78508.31;1030639;28;20694;-76
2022/11/29 00:17:58;;;;;;;33.63;17.23;;;;;;;-139.34;74.07;78508.31;1030512;28;20101;-76
2022/11/29 00:18:49;;;;;;;33.85;16.95;;;;;;;-139.34;74.18;78500.31;1030141;28;20078;-76
2022/11/29 00:19:41;;;;;;;37.53;17.30;;;;;;;-139.34;74.51;78512.31;1028960;28;20099;-76
2022/11/29 00:20:33;;;;;;;34.47;17.77;;;;;;;-139.34;74.41;78502.31;1034709;28;20053;-76
2022/11/29 00:21:25;;;;;;;42.28;18.00;;;;;;;-139.34;74.47;78498.31;1029649;28;20199;-76
2022/11/29 00:22:16;;;;;;;41.17;17.27;;;;;;;-139.34;74.45;78504.31;1035000;28;20058;-76
2022/11/29 00:23:08;;;;;;;35.80;17.20;;;;;;;-139.34;74.36;78498.31;1031746;28;20055;-75
2022/11/29 00:23:59;;;;;;;30.20;16.52;;;;;;;-139.34;74.29;78496.28;1032906;28;20123;-76
2022/11/29 00:24:51;;;;;;;41.33;17.33;;;;;;;-139.34;74.39;78498.31;1034250;28;20105;-76
2022/11/29 00:25:42;;;;;;;40.95;18.08;;;;;;;-139.34;74.59;78504.31;1033955;28;20522;-76
2022/11/29 00:26:35;;;;;;;39.17;17.90;;;;;;;-139.34;74.32;78496.28;1034486;28;20097;-76
2022/11/29 00:27:27;;;;;;;33.95;16.63;;;;;;;-139.34;74.27;78498.31;1026647;28;20058;-76
2022/11/29 00:28:18;;;;;;;34.60;16.90;;;;;;;-139.34;74.30;78496.28;1030758;28;20095;-76
2022/11/29 00:29:11;;;;;;;29.23;17.15;;;;;;;-139.34;74.23;78500.31;1033393;28;20046;-76
2022/11/29 00:30:04;;;;;;;36.67;16.88;;;;;;;-139.34;74.13;78500.31;1030377;28;20046;-76
2022/11/29 00:30:55;;;;;;;36.85;16.95;;;;;;;-139.34;74.01;78494.28;1025756;28;20421;-76
2022/11/29 00:31:47;;;;;;;34.20;16.88;;;;;;;-139.34;73.98;78496.28;1029019;28;20046;-76
2022/11/29 00:32:38;;;;;;;41.30;17.60;;;;;;;-139.34;74.00;78504.31;1030235;28;20054;-75
2022/11/29 00:33:30;;;;;;;35.60;16.67;;;;;;;-139.34;74.00;78504.31;1034112;28;20106;-76
2022/11/29 00:34:21;;;;;;;35.97;17.55;;;;;;;-139.34;74.14;78502.31;1035057;28;20561;-76
2022/11/29 00:35:13;;;;;;;36.55;18.25;;;;;;;-139.34;73.81;78506.31;1031022;28;20057;-76
2022/11/29 00:36:05;;;;;;;38.03;16.77;;;;;;;-139.34;73.87;78504.31;1034398;28;20053;-76
2022/11/29 00:36:56;;;;;;;36.80;18.40;;;;;;;-139.34;74.26;78508.31;1037828;28;20516;-76
2022/11/29 00:37:48;;;;;;;38.33;17.83;;;;;;;-139.34;74.05;78512.31;1034424;28;20073;-76
2022/11/29 00:38:40;;;;;;;33.10;17.92;;;;;;;-139.34;74.12;78508.31;1029108;28;20054;-76
2022/11/29 00:39:32;;;;;;;32.70;17.58;;;;;;;-139.34;74.17;78508.31;1032719;28;20112;-76
2022/11/29 00:40:23;;;;;;;36.20;17.30;;;;;;;-139.34;74.05;78508.31;1039697;28;20340;-76
2022/11/29 00:41:15;;;;;;;38.72;17.63;;;;;;;-139.34;74.21;78510.31;1034258;28;20522;-76
2022/11/29 00:42:06;;;;;;;32.45;17.80;;;;;;;-139.34;74.14;78516.34;1024494;28;20043;-76
2022/11/29 00:42:58;;;;;;;37.35;17.52;;;;;;;-139.34;74.29;78512.31;1030500;28;20490;-76
2022/11/29 00:43:50;;;;;;;35.83;16.85;;;;;;;-139.34;74.21;78508.31;1039180;28;20150;-76
2022/11/29 00:44:41;;;;;;;48.88;17.70;;;;;;;-139.34;74.44;78514.34;1034761;28;20200;-77
2022/11/29 00:45:33;;;;;;;37.97;18.02;;;;;;;-139.34;74.44;78512.31;1026543;28;20046;-76
2022/11/29 00:46:25;;;;;;;43.05;17.45;;;;;;;-139.34;74.24;78512.31;1027102;28;20502;-77
2022/11/29 00:47:16;;;;;;;38.10;17.55;;;;;;;-139.34;74.40;78512.31;1030714;28;20054;-76
2022/11/29 00:48:08;;;;;;;42.58;17.98;;;;;;;-139.34;74.36;78512.31;1035207;28;20053;-77
2022/11/29 00:48:59;;;;;;;43.78;18.35;;;;;;;-139.34;74.43;78512.31;1040105;28;20080;-77
2022/11/29 00:49:51;;;;;;;38.28;18.45;;;;;;;-139.34;74.30;78508.31;1036957;28;20155;-77
2022/11/29 00:50:42;;;;;;;38.85;17.80;;;;;;;-139.34;74.25;78512.31;1034515;28;20050;-77
2022/11/29 00:51:34;;;;;;;46.78;19.15;;;;;;;-139.34;74.38;78508.31;1030845;28;20054;-77
2022/11/29 00:52:25;;;;;;;46.33;18.58;;;;;;;-139.34;74.55;78504.31;1031560;28;20069;-76
2022/11/29 00:53:17;;;;;;;43.92;18.67;;;;;;;-139.34;74.18;78504.31;1031076;28;20183;-76
2022/11/29 00:54:08;;;;;;;43.75;18.77;;;;;;;-139.34;74.56;78506.31;1030737;28;20658;-76
2022/11/29 00:55:00;;;;;;;38.55;18.13;;;;;;;-139.34;74.21;78504.31;1035338;28;20111;-76
2022/11/29 00:55:52;;;;;;;42.92;18.45;;;;;;;-139.34;74.16;78508.31;1034825;28;20869;-76
2022/11/29 00:56:44;;;;;;;48.70;19.23;;;;;;;-139.34;74.29;78510.31;1029450;28;20062;-76
2022/11/29 00:57:35;;;;;;;45.35;18.98;;;;;;;-139.34;74.16;78514.34;1034636;28;20517;-76
2022/11/29 00:58:27;;;;;;;53.13;18.15;;;;;;;-139.34;74.34;78512.31;1037137;28;20049;-76
2022/11/29 00:59:19;;;;;;;50.10;19.17;;;;;;;-139.34;74.21;78516.34;1038719;28;20500;-75
2022/11/29 01:00:11;;;;;;;39.83;18.90;;;;;;;-139.34;74.30;78516.34;1038209;28;20684;-76
2022/11/29 01:01:04;;;;;;;40.47;17.70;;;;;;;-139.34;74.17;78512.31;1034851;28;20057;-77
2022/11/29 01:01:55;;;;;;;43.25;17.88;;;;;;;-139.34;74.37;78514.34;1033563;28;20054;-76
2022/11/29 01:02:47;;;;;;;39.83;18.10;;;;;;;-139.34;74.33;78516.34;1030799;28;20100;-76
2022/11/29 01:03:39;;;;;;;45.45;17.90;;;;;;;-139.34;74.26;78514.34;1035108;28;20042;-76
2022/11/29 01:04:30;;;;;;;39.40;17.25;;;;;;;-139.34;74.37;78514.34;1035530;28;20049;-76
2022/11/29 01:05:22;;;;;;;43.05;18.42;;;;;;;-139.34;74.25;78512.31;1030704;28;20693;-76
2022/11/29 01:06:16;;;;;;;38.97;18.45;;;;;;;-139.34;74.14;78516.34;1033850;28;20109;-76
2022/11/29 01:07:07;;;;;;;42.42;17.80;;;;;;;-139.34;74.10;78516.34;1034332;28;20513;-76
2022/11/29 01:07:59;;;;;;;45.63;18.70;;;;;;;-139.34;74.48;78518.34;1034650;28;20186;-76
2022/11/29 01:08:50;;;;;;;44.65;18.60;;;;;;;-139.34;74.14;78516.34;1035396;28;20504;-76
2022/11/29 01:09:42;;;;;;;47.35;19.40;;;;;;;-139.34;74.38;78516.34;1035364;28;20049;-76
2022/11/29 01:10:33;;;;;;;48.45;17.42;;;;;;;-139.34;74.49;78516.34;1030737;28;20132;-77
2022/11/29 01:11:26;;;;;;;42.72;17.65;;;;;;;-139.34;74.23;78516.34;1031567;28;20078;-77
2022/11/29 01:12:18;;;;;;;40.78;17.10;;;;;;;-139.34;74.27;78512.31;1035094;28;20050;-76
2022/11/29 01:13:10;;;;;;;42.50;16.80;;;;;;;-139.34;74.21;78516.34;1039425;28;20092;-76
2022/11/29 01:14:02;;;;;;;39.05;17.92;;;;;;;-139.34;74.20;78516.34;1034343;28;20053;-76
2022/11/29 01:14:54;;;;;;;42.42;18.17;;;;;;;-139.34;74.18;78518.34;1029524;28;20481;-77
2022/11/29 01:15:53;;;;;;;43.10;17.88;;;;;;;-139.34;74.34;78518.34;1035040;28;20065;-76
2022/11/29 01:16:45;;;;;;;45.83;17.45;;;;;;;-139.34;74.56;78518.34;1038509;28;20121;-76
2022/11/29 01:17:38;;;;;;;38.15;17.83;;;;;;;-139.34;74.38;78520.34;1034441;28;20065;-76
2022/11/29 01:18:30;;;;;;;42.50;18.27;;;;;;;-139.34;74.56;78520.34;1028586;28;20481;-76
2022/11/29 01:19:22;;;;;;;50.13;18.80;;;;;;;-139.34;74.62;78524.34;1030067;28;20089;-76
2022/11/29 01:20:15;;;;;;;49.03;18.10;;;;;;;-139.34;74.42;78520.34;1031294;28;20128;-76
2022/11/29 01:21:13;;;;;;;47.08;18.92;;;;;;;-139.34;74.39;78520.34;1033080;28;20058;-76
2022/11/29 01:22:04;;;;;;;41.33;18.48;;;;;;;-139.34;74.30;78526.34;1038835;28;20084;-76
2022/11/29 01:22:56;;;;;;;50.40;18.63;;;;;;;-139.34;74.48;78524.34;1036736;28;20133;-76
2022/11/29 01:23:48;;;;;;;55.95;18.60;;;;;;;-139.34;74.37;78524.34;1036715;28;20073;-76
2022/11/29 01:24:40;;;;;;;44.78;17.85;;;;;;;-139.34;74.36;78520.34;1027493;28;20053;-77
2022/11/29 01:25:32;;;;;;;48.58;18.27;;;;;;;-139.34;74.46;78524.34;1025618;28;20197;-76
2022/11/29 01:26:26;;;;;;;45.60;17.50;;;;;;;-139.34;74.56;78528.34;1031159;28;20053;-76
2022/11/29 01:27:18;;;;;;;46.92;17.80;;;;;;;-139.34;74.32;78526.34;1034063;28;20506;-76
2022/11/29 01:28:09;;;;;;;49.38;19.55;;;;;;;-139.34;74.41;78528.34;1037989;28;20042;-76
2022/11/29 01:29:01;;;;;;;50.05;18.48;;;;;;;-139.34;74.38;78532.38;1030927;28;20163;-77
2022/11/29 01:29:52;;;;;;;51.38;18.95;;;;;;;-139.34;74.71;78530.38;1031550;28;20645;-76
2022/11/29 01:30:45;;;;;;;51.83;19.52;;;;;;;-139.34;74.36;78532.38;1031385;28;20126;-77
2022/11/29 01:31:37;;;;;;;44.88;17.80;;;;;;;-139.34;74.34;78532.38;1035763;28;20057;-76
2022/11/29 01:32:28;;;;;;;55.38;18.73;;;;;;;-139.34;74.49;78532.38;1039155;28;20053;-76
2022/11/29 01:33:20;;;;;;;50.22;19.20;;;;;;;-139.34;74.57;78538.38;1035488;28;20647;-76
2022/11/29 01:34:12;;;;;;;54.67;18.75;;;;;;;-139.34;74.59;78538.38;1027771;28;20069;-76
2022/11/29 01:35:05;;;;;;;58.33;19.05;;;;;;;-139.34;74.54;78536.38;1030017;28;20648;-76
2022/11/29 01:35:57;;;;;;;41.53;18.55;;;;;;;-139.34;74.46;78538.38;1034487;28;20139;-76
2022/11/29 01:36:48;;;;;;;49.75;19.27;;;;;;;-139.34;74.57;78536.38;1038832;28;20093;-76
2022/11/29 01:37:40;;;;;;;46.97;18.95;;;;;;;-139.34;74.59;78542.38;1034132;28;20143;-77
2022/11/29 01:38:32;;;;;;;40.88;18.63;;;;;;;-139.34;74.37;78536.38;1034302;28;20153;-76
2022/11/29 01:39:23;;;;;;;50.03;18.63;;;;;;;-139.34;74.62;78540.38;1032735;28;20144;-76
2022/11/29 01:40:15;;;;;;;45.75;18.08;;;;;;;-139.34;74.25;78540.38;1025645;28;20051;-76
2022/11/29 01:41:19;;;;;;;59.63;19.98;;;;;;;-139.34;74.46;78534.38;1030913;28;20140;-76
2022/11/29 01:42:12;;;;;;;54.85;19.70;;;;;;;-139.34;74.61;78536.38;1030845;28;20106;-76
2022/11/29 01:43:16;;;;;;;50.03;18.80;;;;;;;-139.34;74.42;78540.38;1032111;28;20058;-76
2022/11/29 01:44:10;;;;;;;44.15;16.92;;;;;;;-139.34;74.64;78540.38;1033069;28;20054;-76
2022/11/29 01:45:23;;;;;;;61.20;19.52;;;;;;;-139.34;74.86;78546.41;1035805;28;20050;-76
2022/11/29 01:46:15;;;;;;;51.90;18.98;;;;;;;-139.34;74.45;78546.41;1031450;28;20105;-76
2022/11/29 01:47:10;;;;;;;59.47;18.52;;;;;;;-139.34;74.72;78546.41;1038064;28;20113;-76
2022/11/29 01:48:01;;;;;;;50.80;17.77;;;;;;;-139.34;74.54;78546.41;1032974;28;20046;-76
2022/11/29 01:48:57;;;;;;;46.65;17.95;;;;;;;-139.34;74.57;78546.41;1037158;28;20103;-77
2022/11/29 01:49:49;;;;;;;57.67;19.63;;;;;;;-139.34;74.57;78548.41;1034989;28;20061;-76
2022/11/29 01:50:41;;;;;;;53.33;18.30;;;;;;;-139.34;74.74;78546.41;1030494;28;20053;-76
2022/11/29 01:51:36;;;;;;;50.13;17.58;;;;;;;-139.34;74.89;78548.41;1035009;28;20056;-76
2022/11/29 01:52:31;;;;;;;43.63;19.10;;;;;;;-139.34;74.99;78546.41;1038827;28;20069;-76
2022/11/29 01:53:22;;;;;;;48.88;19.15;;;;;;;-139.34;74.87;78554.41;1039355;28;20064;-77
2022/11/29 01:54:14;;;;;;;61.65;19.27;;;;;;;-139.34;74.69;78552.41;1034037;28;20057;-77
2022/11/29 01:55:07;;;;;;;60.75;19.23;;;;;;;-139.34;74.79;78548.41;1031057;28;20077;-77
2022/11/29 01:56:02;;;;;;;58.45;19.42;;;;;;;-139.34;74.77;78546.41;1035576;28;20050;-77
2022/11/29 01:56:54;;;;;;;57.88;18.77;;;;;;;-139.34;74.89;78546.41;1039779;28;20053;-76
2022/11/29 01:57:45;;;;;;;52.95;19.20;;;;;;;-139.34;74.73;78544.38;1035160;28;20073;-76
2022/11/29 01:58:37;;;;;;;63.92;20.60;;;;;;;-139.34;74.96;78540.38;1029036;28;20046;-76
2022/11/29 01:59:29;;;;;;;59.28;19.38;;;;;;;-139.34;74.91;78540.38;1034643;28;20077;-76
2022/11/29 02:00:21;;;;;;;64.32;19.63;;;;;;;-139.34;74.87;78536.38;1034779;28;20096;-76
2022/11/29 02:01:13;;;;;;;46.88;19.23;;;;;;;-139.34;74.70;78544.38;1033577;28;20097;-76
2022/11/29 02:02:10;;;;;;;56.70;19.65;;;;;;;-139.34;74.49;78540.38;1037974;28;20061;-77
2022/11/29 02:03:16;;;;;;;65.57;19.35;;;;;;;-139.34;74.46;78536.38;1040955;28;20234;-76
2022/11/29 02:04:08;;;;;;;57.55;19.52;;;;;;;-139.34;74.82;78546.41;1033975;28;20077;-76
2022/11/29 02:05:01;;;;;;;53.08;20.70;;;;;;;-139.34;74.65;78548.41;1024755;28;20079;-76
2022/11/29 02:05:54;;;;;;;59.72;19.40;;;;;;;-139.34;74.73;78548.41;1026361;28;20163;-76
2022/11/29 02:06:45;;;;;;;53.75;19.98;;;;;;;-139.34;74.44;78548.41;1026179;28;20521;-76
2022/11/29 02:07:37;;;;;;;59.17;20.02;;;;;;;-139.34;74.72;78546.41;1030463;28;20054;-76
2022/11/29 02:08:36;;;;;;;59.67;19.67;;;;;;;-139.34;74.43;78548.41;1034710;28;20092;-77
2022/11/29 02:09:28;;;;;;;55.20;20.40;;;;;;;-139.34;74.39;78548.41;1025898;28;20102;-77
2022/11/29 02:10:29;;;;;;;53.40;19.27;;;;;;;-139.34;74.42;78556.41;1023676;28;20137;-77
2022/11/29 02:11:23;;;;;;;62.20;19.95;;;;;;;-139.34;74.28;78558.41;1030190;28;20072;-77
2022/11/29 02:12:26;;;;;;;69.70;21.75;;;;;;;-139.34;74.53;78556.41;1035203;28;20054;-77
2022/11/29 02:13:41;;;;;;;54.78;20.08;;;;;;;-139.34;74.64;78556.41;1034737;28;20085;-77
2022/11/29 02:14:45;;;;;;;67.07;20.83;;;;;;;-139.34;74.73;78560.44;1031990;28;20227;-77
2022/11/29 02:15:43;;;;;;;53.67;19.88;;;;;;;-139.34;74.66;78560.44;1033943;28;20536;-76
2022/11/29 02:16:49;;;;;;;57.25;19.67;;;;;;;-139.34;74.84;78556.41;1031993;28;20188;-76
2022/11/29 02:17:49;;;;;;;68.97;20.48;;;;;;;-139.34;75.08;78560.44;1036734;28;20449;-76
2022/11/29 02:19:19;;;;;;;68.60;20.80;;;;;;;-139.34;74.80;78552.41;1035074;28;20096;-77
2022/11/29 02:20:38;;;;;;;56.05;19.58;;;;;;;-139.34;75.02;78560.44;1036621;28;20589;-76
2022/11/29 02:22:01;;;;;;;58.25;18.67;;;;;;;-139.34;75.32;78560.44;1039214;28;20080;-76
2022/11/29 02:23:09;;;;;;;54.67;19.55;;;;;;;-139.34;75.12;78564.44;1034882;28;20401;-75
2022/11/29 02:24:37;;;;;;;53.17;19.00;;;;;;;-139.34;75.23;78560.44;1036453;28;20089;-76
2022/11/29 02:26:02;;;;;;;65.90;20.35;;;;;;;-139.34;74.98;78560.44;1035378;28;20053;-76
2022/11/29 02:27:06;;;;;;;57.60;19.58;;;;;;;-139.34;74.93;78566.44;1037876;28;20148;-76
2022/11/29 02:28:09;;;;;;;58.28;19.27;;;;;;;-139.34;74.97;78564.44;1033108;28;20217;-76
2022/11/29 02:29:38;;;;;;;69.80;20.77;;;;;;;-139.34;75.03;78568.44;1025865;28;20074;-77
2022/11/29 02:30:38;;;;;;;;;;;;;;;-139.34;75.44;78568.44;1032117;28;20469;-76
2022/11/29 02:32:24;;;;;;;76.47;19.83;;;;;;;-139.34;75.49;78564.44;1034211;28;19921;-76
2022/11/29 02:33:49;;;;;;;49.65;17.17;;;;;;;-139.34;75.56;78568.44;1025964;28;20078;-76
2022/11/29 02:35:00;;;;;;;90.57;20.45;;;;;;;-139.34;75.59;78568.44;1026130;28;20082;-75
2022/11/29 02:36:17;;;;;;;71.15;20.45;;;;;;;-139.34;75.53;78570.44;1024923;28;20478;-76
2022/11/29 02:37:18;;;;;;;61.13;19.52;;;;;;;-139.34;75.55;78566.44;1023766;28;20048;-75
2022/11/29 02:38:34;;;;;;;81.40;20.10;;;;;;;-139.34;75.64;78570.44;1022927;28;20246;-76
2022/11/29 02:39:47;;;;;;;81.38;20.65;;;;;;;-139.34;75.64;78572.44;1030334;28;20086;-75
2022/11/29 02:40:56;;;;;;;72.85;21.52;;;;;;;-139.34;75.51;78568.44;1031201;28;20093;-76
2022/11/29 02:41:57;;;;;;;93.00;22.25;;;;;;;-139.34;75.39;78570.44;1028894;28;20066;-76
2022/11/29 02:43:15;;;;;;;84.57;22.10;;;;;;;-139.34;75.25;78566.44;1032538;28;20129;-76
2022/11/29 02:44:16;;;;;;;85.57;20.50;;;;;;;-139.34;75.14;78572.44;1035554;28;20133;-76
2022/11/29 02:45:17;;;;;;;70.95;20.23;;;;;;;-139.34;75.28;78576.47;1034228;28;20057;-76
2022/11/29 02:46:17;;;;;;;65.65;20.23;;;;;;;-139.34;75.27;78574.44;1031675;28;20517;-76
2022/11/29 02:47:11;;;;;;;69.07;21.30;;;;;;;-139.34;75.33;78570.44;1034365;28;20057;-76
2022/11/29 02:48:34;;;;;;;97.43;22.67;;;;;;;-139.34;75.38;78574.44;1035131;28;20194;-76
2022/11/29 02:49:34;;;;;;;69.43;20.73;;;;;;;-139.34;75.00;78576.47;1032135;28;20047;-76
2022/11/29 02:50:38;;;;;;;78.50;20.75;;;;;;;-139.34;75.09;78576.47;1029748;28;20089;-75
2022/11/29 02:51:48;;;;;;;74.63;20.90;;;;;;;-139.34;75.26;78578.47;1032948;28;20077;-75
2022/11/29 02:53:34;;;;;;;67.80;21.20;;;;;;;-139.34;75.58;78584.47;1034333;28;20517;-75
2022/11/29 02:54:36;;;;;;;53.58;18.35;;;;;;;-139.34;75.52;78584.47;1025962;28;20039;-75
2022/11/29 02:55:38;;;;;;;73.03;22.40;;;;;;;-139.34;75.51;78580.47;1028449;28;20104;-75
2022/11/29 02:56:56;;;;;;;67.38;20.27;;;;;;;-139.34;75.42;78580.47;1031965;28;20094;-75
2022/11/29 02:58:00;;;;;;;61.05;19.70;;;;;;;-139.34;75.46;78580.47;1032191;28;20730;-75
2022/11/29 02:59:14;;;;;;;55.50;20.90;;;;;;;-139.34;75.55;78582.47;1033590;28;20069;-75
2022/11/29 03:00:17;;;;;;;58.53;20.92;;;;;;;-139.34;75.45;78588.47;1037480;28;20500;-75
2022/11/29 03:01:29;;;;;;;65.53;20.98;;;;;;;-139.34;75.60;78584.47;1030469;28;20575;-75
2022/11/29 03:02:38;;;;;;;84.65;20.85;;;;;;;-139.34;75.70;78584.47;1025780;28;21021;-75
2022/11/29 03:03:41;;;;;;;65.38;20.85;;;;;;;-139.34;75.53;78578.47;1028075;28;20121;-76
2022/11/29 03:06:14;;;;;;;69.55;20.77;;;;;;;-139.34;75.71;78576.47;1027045;28;20074;-60
2022/11/29 03:07:20;;;;;;;87.93;21.42;;;;;;;-139.34;75.57;78580.47;1027199;28;21221;-60
2022/11/29 03:08:23;;;;;;;74.65;21.48;;;;;;;-139.34;75.52;78582.47;1027107;28;20058;-60
2022/11/29 03:09:30;;;;;;;67.70;20.48;;;;;;;-139.34;75.49;78580.47;1026647;28;20062;-60
2022/11/29 03:10:50;;;;;;;78.43;21.17;;;;;;;-139.34;75.31;78576.47;1022590;29;20074;-60
2022/11/29 03:11:57;;;;;;;61.05;21.10;;;;;;;-139.34;75.66;78580.47;1025864;28;20484;-60
2022/11/29 03:12:52;;;;;;;64.40;20.73;;;;;;;-139.34;75.58;78578.47;1027144;28;20054;-60
2022/11/29 03:14:22;;;;;;;56.03;20.70;;;;;;;-139.34;75.58;78576.47;1026853;28;20062;-60
2022/11/29 03:15:32;;;;;;;61.92;20.42;;;;;;;-139.34;75.39;78584.47;1022023;28;20054;-60
2022/11/29 03:16:32;;;;;;;53.40;20.17;;;;;;;-139.34;75.41;78580.47;1017736;29;20052;-60
2022/11/29 03:17:50;;;;;;;55.08;20.38;;;;;;;-139.34;75.66;78580.47;1021894;29;20058;-60
2022/11/29 03:19:03;;;;;;;57.70;19.92;;;;;;;-139.34;75.55;78580.47;1020941;29;20443;-60
2022/11/29 03:20:06;;;;;;;61.42;20.20;;;;;;;-139.34;75.65;78584.47;1019362;28;20095;-60
2022/11/29 03:21:29;;;;;;;67.88;20.80;;;;;;;-139.34;75.58;78584.47;1020216;29;20044;-60
2022/11/29 03:22:32;;;;;;;67.90;20.73;;;;;;;-139.34;75.54;78584.47;1018276;29;20060;-60
2022/11/29 03:23:30;;;;;;;56.38;20.27;;;;;;;-139.34;75.65;78584.47;1013378;29;20520;-60
2022/11/29 03:24:34;;;;;;;70.72;20.67;;;;;;;-139.34;75.31;78584.47;1014107;29;20120;-60
2022/11/29 03:25:47;;;;;;;56.60;20.58;;;;;;;-139.34;75.60;78588.47;1022263;28;20126;-60
2022/11/29 03:26:43;;;;;;;68.55;20.73;;;;;;;-139.34;75.55;78586.47;1027666;28;20122;-60
2022/11/29 03:28:00;;;;;;;65.80;21.42;;;;;;;-139.34;75.43;78588.47;1022592;28;20062;-60
2022/11/29 03:29:10;;;;;;;51.80;20.98;;;;;;;-139.34;75.12;78590.47;1010638;29;20052;-60
2022/11/29 03:30:08;;;;;;;52.88;20.63;;;;;;;-139.34;75.38;78592.50;1026158;28;20080;-60
2022/11/29 03:31:09;;;;;;;52.60;20.58;;;;;;;-139.34;75.48;78592.50;1027362;28;20529;-60
2022/11/29 03:32:17;;;;;;;53.65;20.85;;;;;;;-139.34;75.39;78594.50;1016030;29;20055;-60
2022/11/29 03:33:14;;;;;;;68.43;21.33;;;;;;;-139.34;75.34;78592.50;1013559;29;20052;-60
2022/11/29 03:34:08;;;;;;;69.65;20.23;;;;;;;-139.34;75.35;78598.50;1018016;29;20086;-60
2022/11/29 03:35:17;;;;;;;65.05;21.10;;;;;;;-139.34;75.18;78596.50;1017659;29;20155;-60
2022/11/29 03:36:25;;;;;;;60.42;21.63;;;;;;;-139.34;75.51;78598.50;1021331;29;20506;-61
2022/11/29 03:37:24;;;;;;;59.70;20.35;;;;;;;-139.34;75.21;78596.50;1028233;28;20086;-60
2022/11/29 03:38:38;;;;;;;65.75;20.77;;;;;;;-139.34;75.52;78596.50;1026803;28;20055;-60
2022/11/29 03:39:55;;;;;;;66.43;20.70;;;;;;;-139.34;75.53;78596.50;1025522;28;20082;-60
2022/11/29 03:40:50;;;;;;;58.45;19.52;;;;;;;-139.34;75.47;78596.50;1028242;28;20094;-60
2022/11/29 03:42:12;;;;;;;60.13;20.65;;;;;;;-139.34;75.38;78588.47;1027703;28;20114;-60
2022/11/29 03:43:21;;;;;;;58.35;20.25;;;;;;;-139.34;75.36;78598.50;1019019;29;20550;-60
2022/11/29 03:44:17;;;;;;;71.88;21.00;;;;;;;-139.34;75.35;78598.50;1015371;29;20527;-60
2022/11/29 03:45:27;;;;;;;67.05;21.48;;;;;;;-139.34;75.78;78592.50;1020433;29;20099;-60
2022/11/29 03:46:28;;;;;;;64.70;21.73;;;;;;;-139.34;75.59;78596.50;1022757;29;20074;-60
2022/11/29 03:47:26;;;;;;;63.60;20.00;;;;;;;-139.34;75.37;78596.50;1021465;28;20051;-60
2022/11/29 03:48:26;;;;;;;64.30;21.02;;;;;;;-139.34;75.40;78602.50;1025243;28;20070;-60
2022/11/29 03:49:42;;;;;;;70.50;21.33;;;;;;;-139.34;75.44;78600.50;1025612;28;20131;-61
2022/11/29 03:50:42;;;;;;;84.70;20.95;;;;;;;-139.34;75.71;78600.50;1025952;28;20141;-60
2022/11/29 03:51:43;;;;;;;67.38;20.70;;;;;;;-139.34;75.45;78600.50;1025814;28;20057;-60
2022/11/29 03:52:55;;;;;;;71.05;22.67;;;;;;;-139.34;75.62;78600.50;1021753;28;20216;-60
2022/11/29 03:54:09;;;;;;;82.38;21.20;;;;;;;-139.34;75.77;78596.50;1022569;28;20074;-60
2022/11/29 03:55:10;;;;;;;75.53;21.40;;;;;;;-139.34;75.89;78600.50;1025205;28;20047;-60
2022/11/29 03:56:23;;;;;;;58.72;20.73;;;;;;;-139.34;75.59;78604.50;1021600;29;20047;-60
2022/11/29 03:57:23;;;;;;;56.38;20.33;;;;;;;-139.34;75.47;78598.50;1020028;29;20059;-60
2022/11/29 03:58:43;;;;;;;71.03;22.08;;;;;;;-139.34;75.67;78600.50;1016063;29;20127;-60
2022/11/29 03:59:43;;;;;;;;;;;;;;;-139.34;75.61;78600.50;1020131;28;20098;-60
2022/11/29 04:00:48;;;;;;;69.38;20.35;;;;;;;-139.34;75.66;78604.50;1019975;28;19958;-60
2022/11/29 04:02:09;;;;;;;59.28;20.25;;;;;;;-139.34;75.46;78598.50;1023540;28;20051;-60
2022/11/29 04:03:20;;;;;;;71.38;20.60;;;;;;;-139.34;75.49;78600.50;1023659;28;20514;-60
2022/11/29 04:04:48;;;;;;;76.35;20.65;;;;;;;-139.34;75.42;78604.50;1026899;28;20121;-60
2022/11/29 04:06:09;;;;;;;68.90;21.15;;;;;;;-139.34;75.56;78612.53;1021115;29;20059;-60
2022/11/29 04:07:13;;;;;;;92.95;21.08;;;;;;;-139.34;75.56;78604.50;1020226;29;20052;-60
2022/11/29 04:08:16;;;;;;;96.63;21.52;;;;;;;-139.34;75.60;78608.53;1016649;29;20055;-60
2022/11/29 04:09:28;;;;;;;100.43;22.08;;;;;;;-139.34;75.62;78616.53;1021457;29;20089;-60
2022/11/29 04:10:51;;;;;;;78.57;21.52;;;;;;;-139.34;75.67;78610.53;1025899;28;20054;-60
2022/11/29 04:11:54;;;;;;;102.95;23.05;;;;;;;-139.34;75.64;78612.53;1023165;28;20178;-60
2022/11/29 04:13:10;;;;;;;78.45;21.33;;;;;;;-139.34;75.87;78610.53;1016633;29;20054;-60
2022/11/29 04:14:20;;;;;;;64.13;21.80;;;;;;;-139.34;75.90;78608.53;1018966;28;20535;-60
2022/11/29 04:15:17;;;;;;;98.50;23.15;;;;;;;-139.34;75.92;78614.53;1016545;29;20086;-60
2022/11/29 04:16:30;;;;;;;131.13;23.80;;;;;;;-139.34;75.86;78614.53;1017806;29;20086;-60
2022/11/29 04:17:50;;;;;;;103.60;23.15;;;;;;;-139.34;75.89;78606.50;1023061;28;20054;-60
2022/11/29 04:18:59;;;;;;;100.38;21.58;;;;;;;-139.34;75.70;78610.53;1022646;28;20244;-61
2022/11/29 04:20:28;;;;;;;96.78;23.25;;;;;;;-139.34;75.99;78606.50;1022341;28;20141;-60
2022/11/29 04:21:38;;;;;;;88.47;22.33;;;;;;;-139.34;76.04;78614.53;1025796;28;20126;-60
2022/11/29 04:22:32;;;;;;;79.50;22.58;;;;;;;-139.34;76.12;78612.53;1021694;29;20114;-60
2022/11/29 04:23:48;;;;;;;88.30;23.45;;;;;;;-139.34;75.92;78608.53;1016850;29;20512;-60
2022/11/29 04:25:02;;;;;;;105.90;23.50;;;;;;;-139.34;75.78;78612.53;1024019;28;20448;-60
2022/11/29 04:26:21;;;;;;;106.38;22.45;;;;;;;-139.34;76.03;78608.53;1018544;29;20048;-60
2022/11/29 04:27:34;;;;;;;92.38;22.00;;;;;;;-139.34;75.53;78612.53;1019088;29;20138;-60
2022/11/29 04:28:52;;;;;;;74.55;21.02;;;;;;;-139.34;75.98;78614.53;1022138;28;20170;-61
2022/11/29 04:29:53;;;;;;;82.43;22.88;;;;;;;-139.34;76.17;78616.53;1026995;28;20092;-60
2022/11/29 04:31:06;;;;;;;93.82;22.58;;;;;;;-139.34;75.89;78616.53;1023386;29;20082;-60
2022/11/29 04:32:35;;;;;;;84.03;21.70;;;;;;;-139.34;75.78;78612.53;1021038;29;20102;-60
2022/11/29 04:33:45;;;;;;;;;;;;;;;-139.34;76.05;78620.53;1023389;28;20152;-60